DLA1FM LIML-EDDF
Flight info
| Callsign | DLA1FM |
|---|---|
| Flight time | N/A |
| Altitude | 32000 |
| Route | PEPAG1A/35 PEPAG N851 UTAVO DCT ROLSA DCT LADOL T163 EMPAX |
| Aircraft | E195/M-SDE3GILORVW/S |
Departure
| Time | N/A |
|---|---|
| Airport | Milano Linate Airport (LIML) |
Arrival
| Time | 2026-05-03 20:41 |
|---|---|
| Airport | Frankfurt Main Airport (EDDF) |
| Time | Latitude | Longitude | Altitude | Speed | Heading |
|---|---|---|---|---|---|
| 2026-05-03 20:15 | 48.19391 | 8.95866 | 32043 ft | 470 kts | 3° |
| 2026-05-03 20:15 | 48.25885 | 8.96894 | 31979 ft | 471 kts | 4° |
| 2026-05-03 20:15 | 48.29117 | 8.97395 | 31696 ft | 458 kts | 3° |
| 2026-05-03 20:16 | 48.32272 | 8.97868 | 31465 ft | 451 kts | 3° |
| 2026-05-03 20:16 | 48.35362 | 8.98320 | 31221 ft | 451 kts | 3° |
| 2026-05-03 20:16 | 48.38514 | 8.98775 | 30981 ft | 452 kts | 3° |
| 2026-05-03 20:16 | 48.41656 | 8.99233 | 30719 ft | 452 kts | 3° |
| 2026-05-03 20:17 | 48.44786 | 8.99687 | 30481 ft | 451 kts | 3° |
| 2026-05-03 20:17 | 48.47872 | 9.00140 | 30235 ft | 449 kts | 3° |
| 2026-05-03 20:17 | 48.50993 | 9.00599 | 29974 ft | 448 kts | 3° |
| 2026-05-03 20:17 | 48.54093 | 9.01059 | 29688 ft | 446 kts | 3° |
| 2026-05-03 20:18 | 48.57132 | 9.01506 | 29720 ft | 440 kts | 3° |
| 2026-05-03 20:18 | 48.60237 | 9.01969 | 29072 ft | 451 kts | 4° |
| 2026-05-03 20:18 | 48.63323 | 9.02429 | 28492 ft | 446 kts | 4° |
| 2026-05-03 20:18 | 48.66399 | 9.03040 | 27858 ft | 442 kts | 7° |
| 2026-05-03 20:19 | 48.69426 | 9.03826 | 27257 ft | 436 kts | 8° |
| 2026-05-03 20:19 | 48.72362 | 9.04588 | 26688 ft | 431 kts | 7° |
| 2026-05-03 20:19 | 48.75322 | 9.05322 | 26113 ft | 426 kts | 7° |
| 2026-05-03 20:19 | 48.78242 | 9.06028 | 25563 ft | 422 kts | 7° |
| 2026-05-03 20:20 | 48.81132 | 9.06725 | 24997 ft | 417 kts | 7° |
| 2026-05-03 20:20 | 48.83943 | 9.07397 | 24461 ft | 414 kts | 6° |
| 2026-05-03 20:20 | 48.86795 | 9.08079 | 23887 ft | 411 kts | 7° |
| 2026-05-03 20:20 | 48.89615 | 9.08741 | 23315 ft | 407 kts | 5° |
| 2026-05-03 20:21 | 48.92405 | 9.09170 | 22828 ft | 399 kts | 2° |
| 2026-05-03 20:21 | 48.95130 | 9.09485 | 22285 ft | 394 kts | 2° |
| 2026-05-03 20:21 | 48.97856 | 9.09822 | 21758 ft | 389 kts | 2° |
| 2026-05-03 20:21 | 49.00547 | 9.10185 | 21246 ft | 385 kts | 2° |
| 2026-05-03 20:22 | 49.03173 | 9.10554 | 20843 ft | 381 kts | 2° |
| 2026-05-03 20:22 | 49.05804 | 9.10927 | 20479 ft | 378 kts | 2° |
| 2026-05-03 20:22 | 49.08433 | 9.11300 | 20112 ft | 379 kts | 2° |
| 2026-05-03 20:22 | 49.11058 | 9.11674 | 19769 ft | 378 kts | 3° |
| 2026-05-03 20:23 | 49.13692 | 9.12050 | 19414 ft | 377 kts | 3° |
| 2026-05-03 20:23 | 49.16297 | 9.12426 | 19065 ft | 375 kts | 3° |
| 2026-05-03 20:23 | 49.18886 | 9.12797 | 18727 ft | 372 kts | 3° |
| 2026-05-03 20:23 | 49.21464 | 9.13167 | 18389 ft | 370 kts | 3° |
| 2026-05-03 20:24 | 49.23986 | 9.13527 | 18040 ft | 367 kts | 2° |
| 2026-05-03 20:24 | 49.26532 | 9.13894 | 17693 ft | 366 kts | 2° |
| 2026-05-03 20:24 | 49.29075 | 9.14286 | 17348 ft | 366 kts | 5° |
| 2026-05-03 20:24 | 49.31581 | 9.15038 | 17007 ft | 367 kts | 11° |
| 2026-05-03 20:25 | 49.34060 | 9.16031 | 16678 ft | 367 kts | 12° |
| 2026-05-03 20:25 | 49.36502 | 9.16987 | 16347 ft | 366 kts | 11° |
| 2026-05-03 20:25 | 49.38970 | 9.17902 | 16027 ft | 365 kts | 11° |
| 2026-05-03 20:25 | 49.41441 | 9.18789 | 15704 ft | 364 kts | 10° |
| 2026-05-03 20:26 | 49.43919 | 9.19668 | 15383 ft | 363 kts | 10° |
| 2026-05-03 20:26 | 49.46391 | 9.20543 | 15074 ft | 362 kts | 10° |
| 2026-05-03 20:26 | 49.48813 | 9.21405 | 14759 ft | 361 kts | 10° |
| 2026-05-03 20:26 | 49.51261 | 9.22278 | 14448 ft | 360 kts | 10° |
| 2026-05-03 20:27 | 49.53703 | 9.23148 | 14145 ft | 359 kts | 9° |
| 2026-05-03 20:27 | 49.56116 | 9.24006 | 13848 ft | 358 kts | 9° |
| 2026-05-03 20:27 | 49.58539 | 9.24876 | 13516 ft | 357 kts | 10° |
| 2026-05-03 20:27 | 49.60965 | 9.25744 | 13191 ft | 355 kts | 9° |
| 2026-05-03 20:28 | 49.63397 | 9.26027 | 12785 ft | 345 kts | 348° |
| 2026-05-03 20:28 | 49.65682 | 9.25114 | 12434 ft | 336 kts | 335° |
| 2026-05-03 20:28 | 49.67833 | 9.23832 | 12109 ft | 335 kts | 334° |
| 2026-05-03 20:28 | 49.70036 | 9.22609 | 11769 ft | 336 kts | 336° |
| 2026-05-03 20:29 | 49.72265 | 9.21497 | 11426 ft | 336 kts | 338° |
| 2026-05-03 20:29 | 49.74504 | 9.20442 | 11037 ft | 336 kts | 338° |
| 2026-05-03 20:29 | 49.76745 | 9.19402 | 10631 ft | 335 kts | 338° |
| 2026-05-03 20:29 | 49.78953 | 9.18377 | 10234 ft | 335 kts | 338° |
| 2026-05-03 20:30 | 49.81188 | 9.17347 | 9829 ft | 333 kts | 338° |
| 2026-05-03 20:30 | 49.83402 | 9.16324 | 9397 ft | 330 kts | 338° |
| 2026-05-03 20:30 | 49.85596 | 9.15306 | 8962 ft | 325 kts | 338° |
| 2026-05-03 20:30 | 49.87754 | 9.14303 | 8513 ft | 321 kts | 338° |
| 2026-05-03 20:31 | 49.89854 | 9.13342 | 8066 ft | 309 kts | 338° |
| 2026-05-03 20:31 | 49.91881 | 9.12413 | 7658 ft | 297 kts | 338° |
| 2026-05-03 20:31 | 49.93803 | 9.11539 | 7342 ft | 285 kts | 338° |
| 2026-05-03 20:31 | 49.95680 | 9.10685 | 7031 ft | 275 kts | 337° |
| 2026-05-03 20:32 | 49.97505 | 9.09849 | 6719 ft | 270 kts | 337° |
| 2026-05-03 20:32 | 49.99292 | 9.09026 | 6456 ft | 270 kts | 337° |
| 2026-05-03 20:32 | 50.01111 | 9.08188 | 6189 ft | 270 kts | 337° |
| 2026-05-03 20:32 | 50.02893 | 9.07377 | 5917 ft | 267 kts | 338° |
| 2026-05-03 20:33 | 50.04653 | 9.06582 | 5647 ft | 259 kts | 337° |
| 2026-05-03 20:33 | 50.05798 | 9.06062 | 5480 ft | 257 kts | 337° |
| 2026-05-03 20:33 | 50.07507 | 9.05286 | 5234 ft | 254 kts | 337° |
| 2026-05-03 20:33 | 50.09193 | 9.04522 | 5035 ft | 248 kts | 337° |
| 2026-05-03 20:34 | 50.10810 | 9.03790 | 4864 ft | 237 kts | 337° |
| 2026-05-03 20:34 | 50.12209 | 9.02690 | 4609 ft | 216 kts | 309° |
| 2026-05-03 20:34 | 50.12910 | 9.00788 | 4360 ft | 196 kts | 279° |
| 2026-05-03 20:34 | 50.13042 | 8.98751 | 4159 ft | 190 kts | 269° |
| 2026-05-03 20:35 | 50.12993 | 8.96706 | 3959 ft | 186 kts | 251° |
| 2026-05-03 20:35 | 50.12512 | 8.94893 | 4060 ft | 185 kts | 245° |
| 2026-05-03 20:35 | 50.12062 | 8.92983 | 4092 ft | 189 kts | 251° |
| 2026-05-03 20:35 | 50.11653 | 8.91020 | 4046 ft | 192 kts | 248° |
| 2026-05-03 20:36 | 50.11173 | 8.89075 | 3957 ft | 188 kts | 247° |
| 2026-05-03 20:36 | 50.10732 | 8.87195 | 3960 ft | 187 kts | 249° |
| 2026-05-03 20:36 | 50.10300 | 8.85316 | 3951 ft | 178 kts | 249° |
| 2026-05-03 20:36 | 50.09871 | 8.83508 | 3702 ft | 176 kts | 249° |
| 2026-05-03 20:37 | 50.09452 | 8.81727 | 3465 ft | 172 kts | 249° |
| 2026-05-03 20:37 | 50.09051 | 8.80015 | 3244 ft | 169 kts | 249° |
| 2026-05-03 20:37 | 50.08645 | 8.78294 | 3025 ft | 168 kts | 249° |
| 2026-05-03 20:37 | 50.08249 | 8.76615 | 2799 ft | 166 kts | 250° |
| 2026-05-03 20:38 | 50.07859 | 8.74951 | 2567 ft | 161 kts | 249° |
| 2026-05-03 20:38 | 50.07473 | 8.73321 | 2377 ft | 158 kts | 249° |
| 2026-05-03 20:38 | 50.07097 | 8.71724 | 2156 ft | 154 kts | 249° |
| 2026-05-03 20:38 | 50.06737 | 8.70204 | 1941 ft | 146 kts | 249° |
| 2026-05-03 20:39 | 50.06390 | 8.68737 | 1773 ft | 147 kts | 250° |
| 2026-05-03 20:39 | 50.06036 | 8.67237 | 1564 ft | 147 kts | 249° |
| 2026-05-03 20:39 | 50.05683 | 8.65748 | 1370 ft | 147 kts | 248° |
| 2026-05-03 20:39 | 50.05326 | 8.64250 | 1177 ft | 150 kts | 248° |
| 2026-05-03 20:40 | 50.04963 | 8.62721 | 1007 ft | 154 kts | 248° |
| 2026-05-03 20:40 | 50.04586 | 8.61177 | 803 ft | 151 kts | 247° |
| 2026-05-03 20:40 | 50.04242 | 8.59666 | 563 ft | 148 kts | 250° |
| 2026-05-03 20:40 | 50.03890 | 8.58160 | 369 ft | 144 kts | 247° |
| 2026-05-03 20:41 | 50.03577 | 8.56861 | 357 ft | 113 kts | 249° |
| 2026-05-03 20:41 | 50.03361 | 8.55950 | 353 ft | 51 kts | 250° |
| 2026-05-03 20:41 | 50.03314 | 8.55531 | 344 ft | 34 kts | 275° |
| 2026-05-03 20:41 | 50.03337 | 8.55279 | 341 ft | 23 kts | 280° |
| 2026-05-03 20:42 | 50.03423 | 8.55202 | 346 ft | 17 kts | 54° |
| 2026-05-03 20:42 | 50.03468 | 8.55377 | 349 ft | 19 kts | 69° |
| 2026-05-03 20:42 | 50.03519 | 8.55587 | 345 ft | 21 kts | 69° |
| 2026-05-03 20:42 | 50.03576 | 8.55821 | 348 ft | 25 kts | 69° |
| 2026-05-03 20:43 | 50.03640 | 8.56092 | 356 ft | 28 kts | 69° |
| 2026-05-03 20:43 | 50.03709 | 8.56380 | 359 ft | 29 kts | 70° |
| 2026-05-03 20:43 | 50.03779 | 8.56674 | 351 ft | 29 kts | 70° |
| 2026-05-03 20:43 | 50.03850 | 8.56968 | 353 ft | 29 kts | 68° |
| 2026-05-03 20:44 | 50.03918 | 8.57247 | 361 ft | 27 kts | 69° |
| 2026-05-03 20:44 | 50.03979 | 8.57511 | 367 ft | 26 kts | 69° |
| 2026-05-03 20:44 | 50.04040 | 8.57770 | 368 ft | 26 kts | 71° |
| 2026-05-03 20:44 | 50.04100 | 8.58021 | 367 ft | 20 kts | 66° |
| 2026-05-03 20:45 | 50.04147 | 8.58132 | 366 ft | 11 kts | 38° |
| 2026-05-03 20:45 | 50.04230 | 8.58196 | 365 ft | 14 kts | 18° |
| 2026-05-03 20:45 | 50.04333 | 8.58178 | 366 ft | 16 kts | 339° |
| 2026-05-03 20:45 | 50.04444 | 8.58111 | 365 ft | 18 kts | 342° |
| 2026-05-03 20:46 | 50.04570 | 8.58036 | 360 ft | 22 kts | 340° |
| 2026-05-03 20:46 | 50.04723 | 8.57950 | 362 ft | 24 kts | 340° |
| 2026-05-03 20:46 | 50.04839 | 8.57857 | 359 ft | 17 kts | 305° |
| 2026-05-03 20:46 | 50.04890 | 8.57683 | 360 ft | 19 kts | 293° |
| 2026-05-03 20:47 | 50.04943 | 8.57502 | 357 ft | 9 kts | 294° |
| 2026-05-03 20:47 | 50.04976 | 8.57417 | 355 ft | 10 kts | 320° |
| 2026-05-03 20:47 | 50.04999 | 8.57409 | 357 ft | 1 kts | 20° |
| 2026-05-03 20:47 | 50.05002 | 8.57421 | 355 ft | 1 kts | 65° |
| 2026-05-03 20:48 | 50.05004 | 8.57428 | 359 ft | 0 kts | 69° |